createdAt,value
2023-07-10T00:01:33.294Z,23.70
2023-07-10T00:04:00.790Z,23.70
2023-07-10T00:06:28.961Z,23.70
2023-07-10T00:08:56.389Z,23.70
2023-07-10T00:11:28.967Z,23.70
2023-07-10T00:13:57.085Z,23.60
2023-07-10T00:16:26.073Z,23.50
2023-07-10T00:18:53.629Z,23.50
2023-07-10T00:21:21.244Z,23.40
2023-07-10T00:23:49.036Z,23.50
2023-07-10T00:26:24.996Z,23.40
2023-07-10T00:28:59.331Z,23.40
2023-07-10T00:31:29.155Z,23.40
2023-07-10T00:33:56.651Z,23.40
2023-07-10T00:36:32.660Z,23.40
2023-07-10T00:39:11.447Z,23.30
2023-07-10T00:41:40.997Z,23.20
2023-07-10T00:44:08.621Z,23.20
2023-07-10T00:46:50.994Z,23.10
2023-07-10T00:49:35.608Z,23.00
2023-07-10T00:52:34.569Z,22.90
2023-07-10T00:55:03.756Z,22.90
2023-07-10T00:57:36.836Z,22.80
2023-07-10T01:00:18.978Z,22.70
2023-07-10T01:02:48.011Z,22.70
2023-07-10T01:05:17.683Z,22.60
2023-07-10T01:07:51.404Z,22.60
2023-07-10T01:10:19.032Z,22.50
2023-07-10T01:12:47.153Z,22.50
2023-07-10T01:15:16.926Z,22.50
2023-07-10T01:17:44.677Z,22.50
2023-07-10T01:20:37.263Z,22.50
2023-07-10T01:23:05.486Z,22.50
2023-07-10T01:25:41.887Z,22.40
2023-07-10T01:28:13.102Z,22.40
2023-07-10T01:30:45.037Z,22.40
2023-07-10T01:33:18.658Z,22.40
2023-07-10T01:35:49.351Z,22.40
2023-07-10T01:38:16.868Z,22.40
2023-07-10T01:40:52.039Z,22.30
2023-07-10T01:43:19.471Z,22.30
2023-07-10T01:45:49.513Z,22.30
2023-07-10T01:48:19.021Z,22.30
2023-07-10T01:50:46.557Z,22.20
2023-07-10T01:53:14.043Z,22.20
2023-07-10T01:55:46.658Z,22.20
2023-07-10T01:58:15.367Z,22.10
2023-07-10T02:00:43.029Z,22.10
2023-07-10T02:03:10.972Z,22.10
2023-07-10T02:05:38.988Z,22.00
2023-07-10T02:08:06.550Z,22.00
2023-07-10T02:13:04.203Z,21.90
2023-07-10T02:15:31.648Z,21.80
2023-07-10T02:17:59.168Z,21.80
2023-07-10T02:20:26.984Z,21.80
2023-07-10T02:22:54.492Z,21.80
2023-07-10T02:25:21.994Z,21.70
2023-07-10T02:27:49.529Z,21.70
2023-07-10T02:30:16.936Z,21.70
2023-07-10T02:32:44.496Z,21.70
2023-07-10T02:35:11.887Z,21.70
2023-07-10T02:37:39.204Z,21.70
2023-07-10T02:40:07.511Z,21.70
2023-07-10T02:42:35.607Z,21.60
2023-07-10T02:45:05.086Z,21.60
2023-07-10T02:47:32.418Z,21.60
2023-07-10T02:49:59.863Z,21.60
2023-07-10T02:52:27.188Z,21.60
2023-07-10T02:54:54.524Z,21.60
2023-07-10T02:57:21.895Z,21.50
2023-07-10T02:59:50.212Z,21.60
2023-07-10T03:02:17.607Z,21.60
2023-07-10T03:04:45.073Z,21.50
2023-07-10T03:07:12.708Z,21.50
2023-07-10T03:09:40.331Z,21.50
2023-07-10T03:12:08.685Z,21.50
2023-07-10T03:14:36.019Z,21.50
2023-07-10T03:17:05.161Z,21.50
2023-07-10T03:19:32.873Z,21.50
2023-07-10T03:22:00.258Z,21.50
2023-07-10T03:24:28.132Z,21.60
2023-07-10T03:26:55.508Z,21.60
2023-07-10T03:29:23.137Z,21.60
2023-07-10T03:31:51.162Z,21.70
2023-07-10T03:34:18.772Z,21.70
2023-07-10T03:36:46.648Z,21.80
2023-07-10T03:39:14.407Z,21.90
2023-07-10T03:41:41.863Z,21.90
2023-07-10T03:44:11.404Z,22.00
2023-07-10T03:46:38.767Z,21.90
2023-07-10T03:49:06.458Z,22.00
2023-07-10T03:51:34.319Z,22.10
2023-07-10T03:54:01.991Z,22.20
2023-07-10T03:56:29.665Z,22.50
2023-07-10T03:58:57.382Z,22.80
2023-07-10T04:01:25.828Z,23.00
2023-07-10T04:03:53.409Z,23.10
2023-07-10T04:06:20.984Z,23.30
2023-07-10T04:08:48.758Z,23.60
2023-07-10T04:11:21.747Z,24.00
2023-07-10T04:13:52.576Z,24.40
2023-07-10T04:16:21.501Z,24.60
2023-07-10T04:18:51.434Z,24.90
2023-07-10T04:21:22.336Z,25.30
2023-07-10T04:23:50.333Z,25.80
2023-07-10T04:26:25.068Z,26.20
2023-07-10T04:28:55.898Z,26.70
2023-07-10T04:31:24.699Z,27.10
2023-07-10T04:33:53.588Z,27.50
2023-07-10T04:36:22.029Z,27.80
2023-07-10T04:38:50.642Z,28.00
2023-07-10T04:41:22.126Z,28.20
2023-07-10T04:43:50.270Z,28.30
2023-07-10T04:46:19.124Z,28.30
2023-07-10T04:48:46.547Z,28.30
2023-07-10T04:51:15.757Z,28.40
2023-07-10T04:53:43.260Z,28.50
2023-07-10T04:56:12.986Z,28.70
2023-07-10T04:58:54.965Z,28.80
2023-07-10T05:01:25.552Z,28.70
2023-07-10T05:03:53.231Z,28.90
2023-07-10T05:06:21.466Z,29.00
2023-07-10T05:08:48.889Z,29.30
2023-07-10T05:11:16.672Z,29.30
2023-07-10T05:13:44.580Z,29.10
2023-07-10T05:16:12.154Z,29.00
2023-07-10T05:18:39.584Z,28.90
2023-07-10T05:21:07.595Z,29.00
2023-07-10T05:23:36.669Z,29.40
2023-07-10T05:26:13.805Z,29.80
2023-07-10T05:28:41.158Z,30.30
2023-07-10T05:31:11.259Z,30.50
2023-07-10T05:33:40.088Z,30.50
2023-07-10T05:36:11.848Z,30.60
2023-07-10T05:38:39.823Z,30.80
2023-07-10T05:41:07.967Z,31.00
2023-07-10T05:43:36.142Z,31.20
2023-07-10T05:46:04.534Z,31.20
2023-07-10T05:48:32.913Z,30.90
2023-07-10T05:51:00.973Z,30.80
2023-07-10T05:53:28.504Z,31.00
2023-07-10T05:55:58.007Z,31.30
2023-07-10T05:58:27.947Z,31.40
2023-07-10T06:00:58.160Z,31.30
2023-07-10T06:03:26.659Z,30.80
2023-07-10T06:05:59.836Z,30.50
2023-07-10T06:08:29.434Z,30.30
2023-07-10T06:10:57.381Z,30.10
2023-07-10T06:13:27.075Z,30.20
2023-07-10T06:15:57.496Z,30.20
2023-07-10T06:18:25.627Z,30.30
2023-07-10T06:20:54.117Z,30.50
2023-07-10T06:23:25.838Z,31.00
2023-07-10T06:25:53.656Z,31.20
2023-07-10T06:28:22.175Z,31.60
2023-07-10T06:31:01.641Z,31.80
2023-07-10T06:33:30.561Z,31.80
2023-07-10T06:35:58.755Z,32.00
2023-07-10T06:38:26.806Z,32.30
2023-07-10T06:40:55.118Z,32.60
2023-07-10T06:43:23.230Z,32.70
2023-07-10T06:45:51.681Z,32.80
2023-07-10T06:48:19.155Z,32.90
2023-07-10T06:50:50.245Z,33.00
2023-07-10T06:53:25.760Z,33.10
2023-07-10T06:56:04.781Z,33.20
2023-07-10T06:58:34.385Z,33.40
2023-07-10T07:01:03.136Z,33.40
2023-07-10T07:03:31.158Z,33.30
2023-07-10T07:05:59.173Z,33.20
2023-07-10T07:08:26.880Z,33.20
2023-07-10T07:10:55.450Z,33.00
2023-07-10T07:13:23.139Z,32.80
2023-07-10T07:15:52.708Z,32.70
2023-07-10T07:18:21.461Z,32.70
2023-07-10T07:20:49.880Z,32.70
2023-07-10T07:23:17.824Z,32.70
2023-07-10T07:25:45.336Z,32.60
2023-07-10T07:28:13.398Z,32.60
2023-07-10T07:30:49.532Z,32.70
2023-07-10T07:33:19.143Z,32.90
2023-07-10T07:35:48.238Z,33.10
2023-07-10T07:38:16.112Z,33.30
2023-07-10T07:40:43.532Z,33.30
2023-07-10T07:43:11.058Z,33.40
2023-07-10T07:45:38.632Z,33.40
2023-07-10T07:48:06.263Z,33.50
2023-07-10T07:50:33.836Z,33.70
2023-07-10T07:53:01.266Z,33.80
2023-07-10T07:55:28.675Z,33.90
2023-07-10T07:57:55.957Z,34.00
2023-07-10T08:00:24.610Z,34.20
2023-07-10T08:02:53.966Z,34.40
2023-07-10T08:05:34.412Z,34.50
2023-07-10T08:08:07.846Z,34.50
2023-07-10T08:10:44.273Z,34.50
2023-07-10T08:13:13.078Z,34.60
2023-07-10T08:15:40.999Z,34.80
2023-07-10T08:18:09.854Z,35.00
2023-07-10T08:20:37.589Z,35.10
2023-07-10T08:23:05.663Z,35.20
2023-07-10T08:25:33.560Z,35.30
2023-07-10T08:28:02.022Z,35.30
2023-07-10T08:30:30.283Z,35.40
2023-07-10T08:32:58.045Z,35.50
2023-07-10T08:35:25.568Z,35.70
2023-07-10T08:37:53.018Z,35.90
2023-07-10T08:40:32.513Z,36.00
2023-07-10T08:43:04.824Z,36.10
2023-07-10T08:45:37.108Z,36.40
2023-07-10T08:48:32.742Z,36.50
2023-07-10T08:51:25.391Z,36.70
2023-07-10T08:54:07.625Z,36.90
2023-07-10T08:56:37.716Z,37.20
2023-07-10T08:59:20.262Z,37.40
2023-07-10T09:01:48.124Z,37.50
2023-07-10T09:04:18.964Z,37.50
2023-07-10T09:06:57.557Z,37.50
2023-07-10T09:09:55.337Z,37.60
2023-07-10T09:12:49.067Z,37.70
2023-07-10T09:15:20.977Z,37.80
2023-07-10T09:17:51.042Z,37.80
2023-07-10T09:20:22.033Z,37.80
2023-07-10T09:23:02.312Z,38.00
2023-07-10T09:25:30.341Z,38.20
2023-07-10T09:27:57.831Z,38.30
2023-07-10T09:30:55.073Z,38.70
2023-07-10T09:33:23.782Z,39.00
2023-07-10T09:35:51.175Z,39.30
2023-07-10T09:38:19.806Z,39.50
2023-07-10T09:40:49.919Z,39.70
2023-07-10T09:43:21.081Z,40.00
2023-07-10T09:45:50.606Z,40.20
2023-07-10T09:48:38.690Z,40.10
2023-07-10T09:51:12.772Z,40.20
2023-07-10T09:53:48.830Z,40.20
2023-07-10T09:56:52.970Z,40.00
2023-07-10T09:59:22.201Z,39.80
2023-07-10T10:01:51.780Z,39.60
2023-07-10T10:04:23.617Z,39.60
2023-07-10T10:07:21.200Z,39.60
2023-07-10T10:10:01.636Z,39.40
2023-07-10T10:12:35.950Z,39.20
2023-07-10T10:15:40.074Z,39.20
2023-07-10T10:18:31.759Z,39.30
2023-07-10T10:21:02.645Z,39.40
2023-07-10T10:23:36.179Z,39.30
2023-07-10T10:26:19.248Z,39.10
2023-07-10T10:29:10.612Z,39.10
2023-07-10T10:31:45.386Z,38.90
2023-07-10T10:34:36.753Z,38.80
2023-07-10T10:37:25.740Z,38.50
2023-07-10T10:40:00.489Z,38.30
2023-07-10T10:42:42.602Z,38.20
2023-07-10T10:45:29.287Z,38.40
2023-07-10T10:48:16.515Z,38.30
2023-07-10T10:51:13.087Z,38.20
2023-07-10T10:54:23.367Z,38.10
2023-07-10T10:57:35.544Z,38.20
2023-07-10T11:00:29.023Z,38.10
2023-07-10T11:03:12.607Z,38.10
2023-07-10T11:05:44.965Z,38.20
2023-07-10T11:08:21.009Z,38.20
2023-07-10T11:10:50.133Z,38.20
2023-07-10T11:13:41.319Z,38.10
2023-07-10T11:16:09.220Z,38.30
2023-07-10T11:18:39.463Z,38.30
2023-07-10T11:21:07.402Z,38.40
2023-07-10T11:23:41.920Z,38.60
2023-07-10T11:26:14.774Z,38.80
2023-07-10T11:29:08.152Z,38.90
2023-07-10T11:31:42.199Z,39.10
2023-07-10T11:34:29.761Z,39.30
2023-07-10T11:36:59.084Z,39.60
2023-07-10T11:39:35.464Z,39.70
2023-07-10T11:42:18.060Z,39.60
2023-07-10T11:44:58.670Z,39.50
2023-07-10T11:47:30.874Z,39.70
2023-07-10T11:50:01.266Z,39.90
2023-07-10T11:52:30.957Z,39.80
2023-07-10T11:54:58.265Z,39.50
2023-07-10T11:57:34.900Z,39.60
2023-07-10T12:00:05.115Z,39.70
2023-07-10T12:02:45.949Z,39.80
2023-07-10T12:05:26.450Z,39.90
2023-07-10T12:08:10.313Z,39.90
2023-07-10T12:10:42.224Z,39.80
2023-07-10T12:13:23.500Z,39.80
2023-07-10T12:15:52.847Z,39.80
2023-07-10T12:18:27.208Z,39.60
2023-07-10T12:20:55.168Z,39.50
2023-07-10T12:23:22.598Z,39.80
2023-07-10T12:25:51.681Z,40.00
2023-07-10T12:30:54.779Z,39.80
2023-07-10T12:33:36.628Z,39.60
2023-07-10T12:36:27.838Z,39.60
2023-07-10T12:39:00.424Z,39.90
2023-07-10T12:41:33.838Z,40.00
2023-07-10T12:44:03.459Z,40.20
2023-07-10T12:46:31.793Z,40.60
2023-07-10T12:49:07.726Z,41.10
2023-07-10T12:51:39.896Z,41.10
2023-07-10T12:54:22.041Z,40.80
2023-07-10T12:56:52.037Z,40.60
2023-07-10T12:59:32.784Z,40.20
2023-07-10T13:02:02.674Z,39.90
2023-07-10T13:04:32.959Z,39.70
2023-07-10T13:07:12.459Z,39.60
2023-07-10T13:09:59.189Z,39.50
2023-07-10T13:12:33.130Z,39.30
2023-07-10T13:15:01.875Z,39.30
2023-07-10T13:17:31.407Z,39.30
2023-07-10T13:20:09.112Z,39.30
2023-07-10T13:22:37.856Z,39.20
2023-07-10T13:25:07.152Z,39.40
2023-07-10T13:27:34.508Z,39.60
2023-07-10T13:30:01.908Z,39.90
2023-07-10T13:32:29.495Z,40.20
2023-07-10T13:34:57.057Z,40.60
2023-07-10T13:37:25.115Z,41.00
2023-07-10T13:39:53.418Z,41.40
2023-07-10T13:42:22.073Z,41.50
2023-07-10T13:44:49.649Z,41.10
2023-07-10T13:47:19.459Z,41.00
2023-07-10T13:49:47.550Z,41.10
2023-07-10T13:52:27.479Z,41.30
2023-07-10T13:54:56.493Z,41.30
2023-07-10T13:57:30.630Z,41.10
2023-07-10T14:00:00.873Z,40.80
2023-07-10T14:02:36.435Z,40.50
2023-07-10T14:05:13.094Z,40.20
2023-07-10T14:07:41.674Z,39.70
2023-07-10T14:10:15.311Z,39.20
2023-07-10T14:12:42.904Z,38.80
2023-07-10T14:15:18.693Z,38.30
2023-07-10T14:17:46.592Z,38.00
2023-07-10T14:20:23.122Z,37.80
2023-07-10T14:22:51.266Z,37.50
2023-07-10T14:25:19.131Z,37.40
2023-07-10T14:27:46.923Z,37.30
2023-07-10T14:30:21.325Z,37.10
2023-07-10T14:32:49.270Z,37.00
2023-07-10T14:35:21.895Z,36.90
2023-07-10T14:37:50.542Z,36.70
2023-07-10T14:40:18.958Z,36.50
2023-07-10T14:42:46.549Z,35.60
2023-07-10T14:45:16.537Z,34.80
2023-07-10T14:47:45.765Z,34.00
2023-07-10T14:50:14.066Z,33.50
2023-07-10T14:52:43.890Z,33.00
2023-07-10T14:55:21.227Z,32.60
2023-07-10T14:57:49.419Z,32.30
2023-07-10T15:00:25.120Z,32.00
2023-07-10T15:02:53.594Z,31.70
2023-07-10T15:05:21.369Z,31.50
2023-07-10T15:07:57.149Z,31.40
2023-07-10T15:10:27.680Z,31.40
2023-07-10T15:12:58.340Z,31.40
2023-07-10T15:15:34.485Z,31.30
2023-07-10T15:18:02.876Z,31.10
2023-07-10T15:20:30.547Z,31.00
2023-07-10T15:22:58.176Z,31.00
2023-07-10T15:25:30.083Z,31.00
2023-07-10T15:27:57.671Z,30.90
2023-07-10T15:30:27.729Z,31.00
2023-07-10T15:32:57.282Z,31.00
2023-07-10T15:35:24.989Z,30.90
2023-07-10T15:37:52.356Z,30.80
2023-07-10T15:40:28.660Z,30.80
2023-07-10T15:42:58.244Z,30.80
2023-07-10T15:45:31.122Z,31.00
2023-07-10T15:48:01.513Z,31.10
2023-07-10T15:50:31.800Z,31.30
2023-07-10T15:52:59.563Z,31.40
2023-07-10T15:55:32.751Z,31.30
2023-07-10T15:58:01.502Z,31.30
2023-07-10T16:00:38.834Z,31.30
2023-07-10T16:03:25.142Z,31.30
2023-07-10T16:06:03.841Z,31.50
2023-07-10T16:08:39.110Z,31.70
2023-07-10T16:11:17.678Z,31.90
2023-07-10T16:13:47.853Z,31.90
2023-07-10T16:16:18.833Z,32.00
2023-07-10T16:18:48.773Z,32.20
2023-07-10T16:21:20.698Z,32.20
2023-07-10T16:23:49.157Z,32.40
2023-07-10T16:26:18.890Z,32.60
2023-07-10T16:28:46.968Z,32.70
2023-07-10T16:31:29.091Z,32.90
2023-07-10T16:33:58.660Z,32.90
2023-07-10T16:36:29.654Z,32.80
2023-07-10T16:38:57.472Z,32.80
2023-07-10T16:41:25.348Z,32.80
2023-07-10T16:43:52.742Z,32.80
2023-07-10T16:46:20.342Z,32.90
2023-07-10T16:48:48.179Z,32.80
2023-07-10T16:51:22.811Z,32.60
2023-07-10T16:53:54.844Z,32.50
2023-07-10T16:56:22.937Z,32.20
2023-07-10T16:58:51.679Z,32.20
2023-07-10T17:01:31.767Z,32.20
2023-07-10T17:04:02.904Z,32.30
2023-07-10T17:06:33.770Z,32.30
2023-07-10T17:09:01.843Z,32.30
2023-07-10T17:11:32.133Z,32.30
2023-07-10T17:14:01.447Z,32.40
2023-07-10T17:16:29.644Z,32.30
2023-07-10T17:18:57.646Z,32.30
2023-07-10T17:21:28.097Z,32.30
2023-07-10T17:23:55.676Z,32.30
2023-07-10T17:26:24.656Z,32.30
2023-07-10T17:28:52.159Z,32.10
2023-07-10T17:31:31.729Z,32.00
2023-07-10T17:34:01.524Z,31.90
2023-07-10T17:36:30.576Z,31.80
2023-07-10T17:41:47.085Z,31.60
2023-07-10T17:44:39.174Z,31.60
2023-07-10T17:47:13.107Z,31.60
2023-07-10T17:49:48.006Z,31.50
2023-07-10T17:52:18.614Z,31.50
2023-07-10T17:54:46.415Z,31.50
2023-07-10T17:57:18.775Z,31.40
2023-07-10T17:59:47.655Z,31.40
2023-07-10T18:02:23.748Z,31.30
2023-07-10T18:04:52.241Z,31.20
2023-07-10T18:07:19.676Z,31.20
2023-07-10T18:09:51.719Z,31.10
2023-07-10T18:12:22.722Z,31.10
2023-07-10T18:14:50.143Z,31.00
2023-07-10T18:17:20.918Z,31.00
2023-07-10T18:19:54.135Z,31.00
2023-07-10T18:22:25.342Z,31.00
2023-07-10T18:24:57.871Z,31.00
2023-07-10T18:27:26.568Z,31.00
2023-07-10T18:29:54.088Z,31.00
2023-07-10T18:32:22.665Z,30.90
2023-07-10T18:34:53.119Z,30.90
2023-07-10T18:37:20.969Z,30.80
2023-07-10T18:39:48.271Z,30.70
2023-07-10T18:42:19.643Z,30.70
2023-07-10T18:44:47.524Z,30.60
2023-07-10T18:47:14.916Z,30.50
2023-07-10T18:49:42.499Z,30.40
2023-07-10T18:52:24.865Z,30.30
2023-07-10T18:54:52.332Z,30.20
2023-07-10T18:57:19.943Z,30.20
2023-07-10T18:59:47.353Z,30.10
2023-07-10T19:02:15.257Z,30.00
2023-07-10T19:04:42.804Z,29.90
2023-07-10T19:07:17.769Z,29.80
2023-07-10T19:09:46.167Z,29.80
2023-07-10T19:12:17.137Z,29.70
2023-07-10T19:14:45.350Z,29.60
2023-07-10T19:17:19.791Z,29.40
2023-07-10T19:19:51.657Z,29.30
2023-07-10T19:22:19.958Z,29.10
2023-07-10T19:24:47.303Z,29.00
2023-07-10T19:27:15.266Z,29.00
2023-07-10T19:29:42.773Z,28.80
2023-07-10T19:32:20.648Z,28.80
2023-07-10T19:34:49.471Z,28.70
2023-07-10T19:37:16.981Z,28.70
2023-07-10T19:39:45.220Z,28.60
2023-07-10T19:42:12.960Z,28.60
2023-07-10T19:44:55.391Z,28.60
2023-07-10T19:47:24.905Z,28.60
2023-07-10T19:49:54.686Z,28.60
2023-07-10T19:52:21.982Z,28.50
2023-07-10T19:54:49.798Z,28.50
2023-07-10T19:57:20.093Z,28.50
2023-07-10T19:59:47.583Z,28.40
2023-07-10T20:02:16.778Z,28.40
2023-07-10T20:04:44.359Z,28.30
2023-07-10T20:07:13.144Z,28.20
2023-07-10T20:09:40.557Z,28.20
2023-07-10T20:12:22.376Z,28.20
2023-07-10T20:14:50.172Z,28.10
2023-07-10T20:17:30.683Z,28.00
2023-07-10T20:19:59.286Z,27.80
2023-07-10T20:22:27.602Z,27.70
2023-07-10T20:24:55.465Z,27.70
2023-07-10T20:27:23.026Z,27.60
2023-07-10T20:29:50.316Z,27.60
2023-07-10T20:32:17.630Z,27.60
2023-07-10T20:34:48.950Z,27.60
2023-07-10T20:37:19.095Z,27.60
2023-07-10T20:39:46.612Z,27.50
2023-07-10T20:42:15.573Z,27.50
2023-07-10T20:44:42.945Z,27.60
2023-07-10T20:47:15.097Z,27.50
2023-07-10T20:49:48.649Z,27.50
2023-07-10T20:52:18.036Z,27.50
2023-07-10T20:54:48.106Z,27.50
2023-07-10T20:57:16.102Z,27.60
2023-07-10T20:59:43.746Z,27.60
2023-07-10T21:02:20.301Z,27.60
2023-07-10T21:04:47.906Z,27.60
2023-07-10T21:07:18.155Z,27.70
2023-07-10T21:09:48.216Z,27.60
2023-07-10T21:12:18.333Z,27.60
2023-07-10T21:14:47.100Z,27.60
2023-07-10T21:17:28.421Z,27.50
2023-07-10T21:19:55.962Z,27.50
2023-07-10T21:22:25.090Z,27.40
2023-07-10T21:24:52.404Z,27.30
2023-07-10T21:27:24.039Z,27.20
2023-07-10T21:29:52.319Z,27.20
2023-07-10T21:32:25.806Z,27.20
2023-07-10T21:34:54.511Z,27.30
2023-07-10T21:37:21.877Z,27.30
2023-07-10T21:39:49.171Z,27.30
2023-07-10T21:42:25.748Z,27.30
2023-07-10T21:44:57.528Z,27.20
2023-07-10T21:47:24.949Z,27.30
2023-07-10T21:49:52.273Z,27.30
2023-07-10T21:52:19.605Z,27.30
2023-07-10T21:54:46.955Z,27.20
2023-07-10T21:57:23.145Z,27.20
2023-07-10T21:59:50.850Z,27.20
2023-07-10T22:02:18.508Z,27.20
2023-07-10T22:04:46.045Z,27.20
2023-07-10T22:07:13.400Z,27.20
2023-07-10T22:09:40.765Z,27.20
2023-07-10T22:12:15.187Z,27.10
2023-07-10T22:14:42.599Z,27.00
2023-07-10T22:17:22.969Z,27.00
2023-07-10T22:19:57.116Z,26.90
2023-07-10T22:22:24.617Z,26.80
2023-07-10T22:24:52.084Z,26.80
2023-07-10T22:27:19.601Z,26.70
2023-07-10T22:29:47.151Z,26.70
2023-07-10T22:32:14.517Z,26.70
2023-07-10T22:34:42.020Z,26.70
2023-07-10T22:37:11.380Z,26.70
2023-07-10T22:39:39.083Z,26.60
2023-07-10T22:42:06.721Z,26.60
2023-07-10T22:44:34.126Z,26.50
2023-07-10T22:47:01.471Z,26.50
2023-07-10T22:49:28.948Z,26.50
2023-07-10T22:51:56.430Z,26.40
2023-07-10T22:54:23.719Z,26.40
2023-07-10T22:56:50.989Z,26.30
2023-07-10T22:59:20.174Z,26.40
2023-07-10T23:01:50.889Z,26.30
2023-07-10T23:04:18.743Z,26.30
2023-07-10T23:06:46.733Z,26.30
2023-07-10T23:09:14.098Z,26.20
2023-07-10T23:11:41.436Z,26.20
2023-07-10T23:14:08.884Z,26.20
2023-07-10T23:16:36.719Z,26.00
2023-07-10T23:19:04.156Z,26.10
2023-07-10T23:21:31.596Z,26.00
2023-07-10T23:24:00.879Z,26.00
2023-07-10T23:26:28.505Z,26.00
2023-07-10T23:28:55.830Z,26.00
2023-07-10T23:31:26.232Z,26.00
2023-07-10T23:33:54.448Z,26.00
2023-07-10T23:36:24.602Z,25.90
2023-07-10T23:38:52.806Z,25.90
2023-07-10T23:41:20.850Z,25.80
2023-07-10T23:43:48.650Z,25.80
2023-07-10T23:46:16.354Z,25.80
2023-07-10T23:48:44.693Z,25.80
2023-07-10T23:51:12.293Z,25.80
2023-07-10T23:53:39.689Z,25.80
2023-07-10T23:56:08.701Z,25.70
2023-07-10T23:58:36.356Z,25.60
